createdAt,value
2018-12-29T00:01:33.662Z,96.50
2018-12-29T00:04:02.537Z,96.20
2018-12-29T00:06:31.610Z,96.10
2018-12-29T00:09:00.901Z,96.20
2018-12-29T00:11:30.096Z,96.30
2018-12-29T00:13:59.046Z,96.30
2018-12-29T00:16:28.006Z,96.20
2018-12-29T00:18:56.967Z,96.20
2018-12-29T00:21:25.994Z,96.10
2018-12-29T00:23:55.029Z,96.20
2018-12-29T00:26:23.865Z,96.20
2018-12-29T00:28:53.129Z,96.30
2018-12-29T00:31:21.981Z,96.10
2018-12-29T00:33:51.146Z,96.20
2018-12-29T00:36:20.001Z,96.20
2018-12-29T00:38:48.971Z,96.30
2018-12-29T00:41:17.949Z,96.30
2018-12-29T00:43:46.810Z,96.40
2018-12-29T00:46:15.726Z,96.40
2018-12-29T00:48:44.613Z,96.40
2018-12-29T00:51:13.765Z,96.50
2018-12-29T00:53:42.614Z,96.60
2018-12-29T00:56:11.585Z,96.70
2018-12-29T00:58:40.635Z,96.70
2018-12-29T01:01:09.839Z,96.60
2018-12-29T01:03:38.685Z,96.60
2018-12-29T01:06:07.633Z,96.60
2018-12-29T01:08:36.821Z,96.60
2018-12-29T01:11:05.837Z,96.50
2018-12-29T01:13:34.766Z,96.50
2018-12-29T01:16:03.777Z,96.50
2018-12-29T01:18:32.705Z,96.60
2018-12-29T01:21:01.725Z,96.50
2018-12-29T01:23:30.729Z,96.40
2018-12-29T01:25:59.601Z,96.60
2018-12-29T01:28:28.541Z,96.20
2018-12-29T01:30:57.525Z,96.50
2018-12-29T01:33:26.385Z,96.80
2018-12-29T01:35:55.252Z,96.60
2018-12-29T01:38:24.191Z,96.80
2018-12-29T01:40:53.398Z,96.90
2018-12-29T01:43:22.356Z,96.90
2018-12-29T01:45:51.293Z,96.90
2018-12-29T01:48:20.275Z,97.10
2018-12-29T01:50:49.480Z,97.30
2018-12-29T01:53:18.430Z,97.60
2018-12-29T01:55:47.422Z,97.80
2018-12-29T01:58:16.366Z,97.80
2018-12-29T02:00:45.350Z,97.80
2018-12-29T02:03:14.211Z,97.90
2018-12-29T02:05:43.150Z,98.10
2018-12-29T02:08:12.149Z,98.40
2018-12-29T02:10:41.541Z,98.40
2018-12-29T02:13:10.443Z,98.60
2018-12-29T02:15:39.305Z,98.60
2018-12-29T02:18:08.245Z,98.80
2018-12-29T02:20:56.424Z,99.00
2018-12-29T02:23:25.471Z,99.00
2018-12-29T02:25:54.491Z,99.00
2018-12-29T02:28:23.450Z,99.00
2018-12-29T02:30:52.310Z,99.10
2018-12-29T02:33:21.327Z,99.00
2018-12-29T02:35:50.253Z,99.00
2018-12-29T02:38:19.122Z,99.00
2018-12-29T02:40:48.050Z,99.20
2018-12-29T02:43:16.966Z,99.10
2018-12-29T02:45:45.904Z,99.20
2018-12-29T02:48:14.860Z,99.20
2018-12-29T02:50:43.717Z,99.50
2018-12-29T02:53:12.583Z,99.30
2018-12-29T02:55:41.434Z,99.40
2018-12-29T02:58:10.602Z,99.50
2018-12-29T03:00:39.542Z,99.50
2018-12-29T03:03:08.409Z,99.50
2018-12-29T03:05:37.379Z,99.40
2018-12-29T03:08:06.428Z,99.60
2018-12-29T03:10:35.526Z,99.50
2018-12-29T03:13:04.567Z,99.40
2018-12-29T03:15:40.825Z,99.50
2018-12-29T03:18:04.582Z,99.70
2018-12-29T03:20:33.507Z,99.50
2018-12-29T03:23:02.383Z,99.50
2018-12-29T03:25:31.306Z,99.50
2018-12-29T03:28:00.370Z,99.50
2018-12-29T03:30:29.228Z,99.60
2018-12-29T03:32:58.179Z,99.50
2018-12-29T03:35:27.206Z,99.60
2018-12-29T03:37:56.067Z,99.50
2018-12-29T03:40:25.011Z,99.40
2018-12-29T03:42:54.477Z,99.70
2018-12-29T03:45:23.342Z,99.50
2018-12-29T03:47:52.265Z,99.50
2018-12-29T03:50:22.988Z,99.40
2018-12-29T03:52:52.090Z,99.60
2018-12-29T03:55:21.106Z,99.70
2018-12-29T03:57:49.980Z,99.50
2018-12-29T04:00:18.930Z,99.30
2018-12-29T04:02:47.863Z,99.50
2018-12-29T04:05:16.801Z,99.50
2018-12-29T04:07:45.927Z,99.50
2018-12-29T04:10:16.884Z,99.50
2018-12-29T04:12:55.345Z,99.60
2018-12-29T04:15:24.245Z,99.50
2018-12-29T04:17:53.107Z,99.50
2018-12-29T04:20:21.970Z,99.60
2018-12-29T04:22:50.839Z,99.30
2018-12-29T04:25:23.955Z,99.40
2018-12-29T04:27:52.882Z,99.30
2018-12-29T04:30:21.769Z,99.30
2018-12-29T04:32:50.706Z,99.50
2018-12-29T04:35:19.661Z,99.50
2018-12-29T04:37:48.622Z,99.50
2018-12-29T04:40:17.677Z,99.60
2018-12-29T04:42:46.542Z,99.60
2018-12-29T04:45:15.389Z,99.50
2018-12-29T04:47:44.258Z,99.40
2018-12-29T04:50:13.428Z,99.20
2018-12-29T04:52:42.433Z,99.30
2018-12-29T04:55:11.433Z,99.30
2018-12-29T04:57:40.374Z,99.30
2018-12-29T05:00:09.962Z,99.30
2018-12-29T05:02:38.834Z,99.30
2018-12-29T05:05:07.770Z,99.30
2018-12-29T05:07:36.636Z,99.30
2018-12-29T05:10:05.746Z,99.30
2018-12-29T05:12:34.609Z,99.30
2018-12-29T05:15:03.607Z,99.30
2018-12-29T05:17:32.479Z,99.30
2018-12-29T05:20:01.520Z,99.30
2018-12-29T05:22:30.474Z,99.20
2018-12-29T05:24:59.645Z,99.10
2018-12-29T05:27:28.857Z,99.20
2018-12-29T05:29:57.805Z,99.10
2018-12-29T05:32:26.753Z,99.20
2018-12-29T05:34:55.790Z,99.30
2018-12-29T05:37:24.649Z,99.20
2018-12-29T05:39:53.497Z,99.20
2018-12-29T05:42:22.365Z,99.30
2018-12-29T05:44:51.225Z,99.30
2018-12-29T05:47:20.089Z,99.30
2018-12-29T05:49:48.946Z,99.40
2018-12-29T05:52:17.878Z,99.40
2018-12-29T05:54:46.809Z,99.20
2018-12-29T05:57:16.245Z,99.20
2018-12-29T05:59:45.111Z,99.20
2018-12-29T06:02:14.237Z,99.10
2018-12-29T06:04:43.309Z,99.20
2018-12-29T06:07:12.188Z,99.00
2018-12-29T06:09:41.036Z,99.30
2018-12-29T06:12:09.974Z,99.30
2018-12-29T06:14:38.914Z,99.50
2018-12-29T06:17:07.855Z,99.50
2018-12-29T06:19:36.799Z,99.60
2018-12-29T06:22:06.030Z,99.80
2018-12-29T06:24:34.972Z,99.60
2018-12-29T06:27:03.929Z,99.60
2018-12-29T06:29:32.933Z,99.60
2018-12-29T06:32:01.865Z,99.50
2018-12-29T06:34:30.806Z,99.50
2018-12-29T06:36:59.664Z,99.40
2018-12-29T06:39:28.530Z,99.40
2018-12-29T06:41:57.381Z,99.40
2018-12-29T06:44:26.439Z,99.50
2018-12-29T06:46:55.392Z,99.60
2018-12-29T06:49:24.350Z,99.40
2018-12-29T06:51:53.289Z,99.40
2018-12-29T06:54:22.461Z,99.40
2018-12-29T06:56:51.390Z,99.30
2018-12-29T06:59:20.250Z,99.20
2018-12-29T07:01:49.113Z,99.10
2018-12-29T07:04:17.970Z,99.20
2018-12-29T07:06:47.185Z,99.10
2018-12-29T07:09:16.113Z,99.20
2018-12-29T07:11:44.967Z,99.30
2018-12-29T07:14:14.173Z,99.50
2018-12-29T07:16:43.109Z,99.40
2018-12-29T07:19:11.981Z,99.20
2018-12-29T07:21:40.837Z,99.20
2018-12-29T07:24:10.070Z,98.90
2018-12-29T07:26:38.937Z,99.10
2018-12-29T07:29:07.928Z,99.10
2018-12-29T07:31:36.866Z,99.00
2018-12-29T07:34:05.729Z,99.00
2018-12-29T07:36:34.997Z,99.10
2018-12-29T07:39:05.774Z,99.10
2018-12-29T07:41:34.706Z,99.00
2018-12-29T07:44:03.652Z,98.90
2018-12-29T07:46:32.522Z,99.20
2018-12-29T07:49:01.705Z,99.20
2018-12-29T07:51:30.564Z,99.30
2018-12-29T07:53:59.436Z,99.30
2018-12-29T07:56:28.746Z,99.40
2018-12-29T07:58:57.985Z,99.40
2018-12-29T08:01:26.846Z,99.50
2018-12-29T08:03:55.702Z,99.40
2018-12-29T08:06:24.561Z,99.40
2018-12-29T08:08:53.501Z,99.60
2018-12-29T08:11:22.362Z,99.50
2018-12-29T08:13:51.399Z,99.60
2018-12-29T08:16:20.415Z,99.60
2018-12-29T08:18:49.346Z,99.60
2018-12-29T08:21:18.783Z,99.70
2018-12-29T08:23:47.833Z,99.50
2018-12-29T08:26:16.706Z,99.40
2018-12-29T08:28:45.567Z,99.60
2018-12-29T08:31:14.430Z,99.50
2018-12-29T08:33:43.294Z,99.90
2018-12-29T08:36:12.238Z,99.90
2018-12-29T08:38:41.170Z,99.90
2018-12-29T08:41:10.194Z,99.90
2018-12-29T08:43:39.137Z,99.90
2018-12-29T08:46:08.010Z,99.90
2018-12-29T08:48:36.968Z,99.90
2018-12-29T08:51:06.002Z,99.90
2018-12-29T08:53:34.937Z,99.90
2018-12-29T08:56:03.891Z,99.90
2018-12-29T08:58:32.746Z,99.90
2018-12-29T09:01:01.968Z,99.90
2018-12-29T09:03:30.837Z,99.90
2018-12-29T09:05:59.774Z,99.90
2018-12-29T09:08:29.018Z,99.70
2018-12-29T09:10:57.986Z,99.80
2018-12-29T09:13:26.847Z,99.90
2018-12-29T09:15:55.789Z,99.70
2018-12-29T09:18:24.641Z,99.50
2018-12-29T09:20:53.501Z,99.70
2018-12-29T09:23:22.581Z,99.70
2018-12-29T09:25:51.521Z,99.60
2018-12-29T09:28:20.381Z,99.80
2018-12-29T09:30:49.437Z,99.90
2018-12-29T09:33:18.386Z,99.90
2018-12-29T09:35:47.349Z,99.70
2018-12-29T09:38:16.380Z,99.90
2018-12-29T09:40:45.258Z,99.90
2018-12-29T09:43:14.120Z,99.40
2018-12-29T09:45:43.307Z,99.40
2018-12-29T09:48:12.533Z,99.50
2018-12-29T09:50:41.684Z,99.70
2018-12-29T09:53:10.566Z,99.60
2018-12-29T09:55:39.493Z,99.20
2018-12-29T09:58:08.383Z,99.30
2018-12-29T10:00:37.304Z,99.50
2018-12-29T10:05:45.131Z,99.20
2018-12-29T10:08:14.079Z,98.80
2018-12-29T10:10:42.940Z,98.70
2018-12-29T10:13:11.873Z,98.70
2018-12-29T10:15:40.777Z,98.60
2018-12-29T10:18:09.645Z,98.50
2018-12-29T10:20:38.510Z,98.90
2018-12-29T10:23:07.858Z,98.50
2018-12-29T10:25:36.774Z,98.50
2018-12-29T10:28:05.722Z,98.30
2018-12-29T10:30:34.649Z,98.20
2018-12-29T10:33:03.661Z,98.40
2018-12-29T10:35:32.938Z,98.20
2018-12-29T10:38:01.805Z,98.10
2018-12-29T10:40:30.649Z,98.20
2018-12-29T10:42:59.820Z,97.80
2018-12-29T10:45:28.757Z,97.90
2018-12-29T10:47:57.626Z,98.00
2018-12-29T10:50:26.561Z,98.30
2018-12-29T10:52:55.509Z,98.10
2018-12-29T10:55:24.469Z,98.10
2018-12-29T10:57:53.611Z,98.10
2018-12-29T11:00:22.710Z,97.90
2018-12-29T11:02:51.686Z,97.80
2018-12-29T11:05:20.949Z,97.70
2018-12-29T11:07:49.894Z,97.50
2018-12-29T11:10:18.817Z,97.50
2018-12-29T11:12:48.125Z,97.80
2018-12-29T11:15:17.050Z,97.60
2018-12-29T11:17:46.162Z,98.10
2018-12-29T11:20:15.017Z,97.70
2018-12-29T11:22:43.889Z,98.10
2018-12-29T11:25:12.818Z,98.40
2018-12-29T11:27:42.017Z,98.60
2018-12-29T11:30:11.011Z,98.40
2018-12-29T11:32:40.083Z,98.60
2018-12-29T11:35:08.936Z,98.40
2018-12-29T11:37:37.997Z,98.50
2018-12-29T11:40:07.089Z,98.60
2018-12-29T11:42:36.118Z,98.50
2018-12-29T11:45:05.309Z,98.30
2018-12-29T11:47:34.242Z,98.40
2018-12-29T11:50:03.286Z,98.10
2018-12-29T11:52:32.678Z,98.30
2018-12-29T11:55:01.546Z,98.00
2018-12-29T11:57:30.478Z,98.10
2018-12-29T11:59:59.425Z,98.40
2018-12-29T12:02:29.097Z,97.80
2018-12-29T12:04:58.245Z,97.80
2018-12-29T12:07:27.249Z,97.80
2018-12-29T12:09:56.439Z,97.70
2018-12-29T12:12:25.299Z,97.90
2018-12-29T12:14:54.710Z,98.10
2018-12-29T12:17:23.637Z,97.90
2018-12-29T12:19:52.962Z,97.90
2018-12-29T12:22:22.002Z,97.80
2018-12-29T12:24:50.894Z,97.70
2018-12-29T12:27:19.749Z,97.40
2018-12-29T12:29:48.894Z,97.50
2018-12-29T12:32:17.836Z,97.70
2018-12-29T12:34:47.148Z,97.40
2018-12-29T12:37:15.998Z,97.40
2018-12-29T12:39:45.141Z,97.40
2018-12-29T12:42:14.333Z,97.50
2018-12-29T12:44:43.269Z,97.70
2018-12-29T12:47:12.502Z,97.20
2018-12-29T12:49:41.694Z,96.90
2018-12-29T12:52:10.551Z,97.00
2018-12-29T12:54:39.805Z,96.80
2018-12-29T12:57:09.213Z,96.80
2018-12-29T12:59:38.550Z,96.50
2018-12-29T13:02:07.452Z,96.70
2018-12-29T13:04:36.715Z,96.80
2018-12-29T13:07:05.763Z,96.60
2018-12-29T13:09:34.662Z,96.50
2018-12-29T13:12:04.197Z,96.50
2018-12-29T13:14:33.241Z,96.40
2018-12-29T13:17:02.481Z,96.50
2018-12-29T13:19:31.904Z,96.50
2018-12-29T13:22:00.853Z,96.50
2018-12-29T13:24:29.714Z,96.60
2018-12-29T13:26:58.612Z,96.70
2018-12-29T13:29:27.922Z,96.70
2018-12-29T13:31:57.310Z,96.60
2018-12-29T13:34:26.414Z,96.70
2018-12-29T13:36:55.700Z,96.80
2018-12-29T13:39:24.608Z,96.70
2018-12-29T13:41:53.657Z,96.70
2018-12-29T13:44:22.603Z,97.40
2018-12-29T13:46:51.614Z,96.60
2018-12-29T13:49:20.797Z,96.60
2018-12-29T13:51:51.306Z,96.70
2018-12-29T13:54:20.344Z,96.70
2018-12-29T13:56:49.389Z,96.70
2018-12-29T13:59:18.782Z,96.70
2018-12-29T14:01:47.649Z,96.50
2018-12-29T14:04:17.423Z,96.40
2018-12-29T14:06:46.450Z,96.50
2018-12-29T14:09:15.501Z,96.50
2018-12-29T14:11:44.441Z,96.40
2018-12-29T14:14:13.392Z,96.30
2018-12-29T14:16:42.621Z,96.20
2018-12-29T14:19:11.707Z,96.20
2018-12-29T14:21:40.677Z,96.10
2018-12-29T14:24:11.002Z,96.20
2018-12-29T14:26:40.370Z,96.00
2018-12-29T14:29:09.296Z,96.00
2018-12-29T14:31:38.584Z,96.10
2018-12-29T14:34:07.614Z,96.20
2018-12-29T14:36:37.250Z,96.30
2018-12-29T14:39:07.237Z,96.20
2018-12-29T14:41:36.232Z,96.40
2018-12-29T14:44:05.196Z,96.30
2018-12-29T14:46:38.334Z,96.20
2018-12-29T14:49:07.452Z,96.10
2018-12-29T14:51:36.386Z,96.00
2018-12-29T14:54:05.488Z,96.30
2018-12-29T14:56:34.421Z,96.50
2018-12-29T14:59:03.434Z,96.20
2018-12-29T15:01:32.365Z,96.10
2018-12-29T15:04:01.239Z,96.20
2018-12-29T15:06:30.505Z,96.30
2018-12-29T15:08:59.685Z,96.40
2018-12-29T15:11:28.613Z,96.30
2018-12-29T15:13:57.485Z,96.20
2018-12-29T15:16:26.437Z,96.20
2018-12-29T15:18:56.759Z,96.00
2018-12-29T15:21:25.917Z,96.30
2018-12-29T15:23:54.916Z,96.50
2018-12-29T15:26:23.929Z,96.40
2018-12-29T15:28:53.042Z,96.30
2018-12-29T15:31:22.130Z,96.50
2018-12-29T15:33:51.149Z,96.40
2018-12-29T15:36:20.009Z,96.50
2018-12-29T15:38:48.965Z,96.50
2018-12-29T15:41:18.549Z,96.50
2018-12-29T15:43:48.105Z,96.50
2018-12-29T15:46:17.125Z,96.50
2018-12-29T15:48:51.181Z,96.50
2018-12-29T15:51:16.584Z,96.60
2018-12-29T15:53:45.533Z,96.50
2018-12-29T15:56:14.863Z,96.50
2018-12-29T15:58:43.958Z,96.60
2018-12-29T16:01:13.198Z,96.70
2018-12-29T16:03:42.149Z,96.80
2018-12-29T16:06:11.081Z,96.70
2018-12-29T16:08:40.138Z,96.70
2018-12-29T16:11:09.154Z,96.70
2018-12-29T16:13:38.571Z,96.70
2018-12-29T16:16:07.648Z,96.70
2018-12-29T16:18:36.732Z,96.60
2018-12-29T16:21:05.710Z,96.80
2018-12-29T16:23:34.692Z,96.90
2018-12-29T16:26:03.733Z,96.80
2018-12-29T16:28:32.677Z,96.90
2018-12-29T16:31:01.953Z,96.90
2018-12-29T16:33:30.797Z,96.80
2018-12-29T16:36:00.106Z,96.80
2018-12-29T16:38:29.666Z,96.80
2018-12-29T16:40:58.801Z,97.10
2018-12-29T16:43:28.058Z,96.90
2018-12-29T16:45:57.134Z,97.00
2018-12-29T16:48:26.341Z,96.90
2018-12-29T16:50:55.586Z,97.10
2018-12-29T16:53:29.242Z,97.10
2018-12-29T16:55:55.281Z,97.10
2018-12-29T16:58:24.218Z,97.30
2018-12-29T17:00:53.779Z,97.30
2018-12-29T17:03:22.717Z,97.50
2018-12-29T17:05:51.756Z,97.20
2018-12-29T17:08:20.701Z,97.10
2018-12-29T17:10:49.942Z,97.20
2018-12-29T17:13:18.869Z,97.40
2018-12-29T17:15:47.821Z,97.50
2018-12-29T17:18:16.762Z,97.30
2018-12-29T17:20:46.018Z,97.20
2018-12-29T17:23:14.961Z,97.40
2018-12-29T17:25:44.181Z,97.40
2018-12-29T17:28:13.116Z,97.30
2018-12-29T17:30:42.054Z,97.40
2018-12-29T17:33:11.015Z,97.20
2018-12-29T17:35:40.068Z,97.40
2018-12-29T17:38:09.313Z,97.40
2018-12-29T17:40:38.182Z,97.50
2018-12-29T17:43:07.138Z,97.30
2018-12-29T17:45:36.069Z,97.30
2018-12-29T17:48:05.086Z,97.20
2018-12-29T17:50:34.617Z,97.30
2018-12-29T17:53:03.562Z,97.30
2018-12-29T17:55:32.486Z,97.20
2018-12-29T17:58:01.681Z,97.20
2018-12-29T18:00:30.982Z,97.40
2018-12-29T18:02:59.862Z,97.80
2018-12-29T18:05:28.789Z,97.80
2018-12-29T18:07:58.042Z,97.60
2018-12-29T18:10:27.429Z,97.60
2018-12-29T18:12:56.594Z,97.60
2018-12-29T18:15:25.678Z,97.60
2018-12-29T18:17:54.569Z,97.50
2018-12-29T18:20:23.479Z,97.50
2018-12-29T18:22:52.433Z,97.60
2018-12-29T18:25:21.509Z,97.60
2018-12-29T18:27:50.458Z,97.70
2018-12-29T18:30:19.540Z,97.60
2018-12-29T18:32:48.477Z,97.50
2018-12-29T18:35:17.414Z,97.50
2018-12-29T18:37:46.605Z,97.20
2018-12-29T18:40:15.537Z,97.60
2018-12-29T18:42:44.697Z,97.50
2018-12-29T18:45:13.625Z,97.60
2018-12-29T18:47:42.681Z,97.70
2018-12-29T18:50:11.704Z,97.70
2018-12-29T18:52:40.725Z,97.90
2018-12-29T18:55:10.455Z,97.80
2018-12-29T18:57:39.393Z,97.80
2018-12-29T19:00:08.404Z,97.90
2018-12-29T19:02:37.734Z,98.00
2018-12-29T19:05:06.770Z,97.80
2018-12-29T19:07:35.707Z,97.90
2018-12-29T19:10:05.205Z,98.00
2018-12-29T19:12:34.218Z,97.90
2018-12-29T19:15:03.309Z,97.90
2018-12-29T19:17:32.741Z,97.90
2018-12-29T19:20:01.970Z,97.90
2018-12-29T19:22:30.986Z,97.90
2018-12-29T19:25:00.391Z,97.90
2018-12-29T19:27:29.711Z,98.10
2018-12-29T19:29:58.681Z,98.00
2018-12-29T19:32:28.968Z,97.90
2018-12-29T19:34:58.270Z,98.20
2018-12-29T19:37:27.531Z,98.30
2018-12-29T19:39:56.773Z,98.20
2018-12-29T19:42:25.705Z,98.30
2018-12-29T19:44:54.719Z,98.30
2018-12-29T19:47:23.901Z,98.20
2018-12-29T19:49:53.791Z,98.20
2018-12-29T19:52:22.995Z,98.10
2018-12-29T19:54:52.224Z,98.20
2018-12-29T19:57:21.785Z,98.50
2018-12-29T19:59:50.842Z,98.60
2018-12-29T20:02:20.170Z,98.80
2018-12-29T20:04:49.385Z,98.60
2018-12-29T20:07:18.613Z,98.60
2018-12-29T20:09:47.485Z,98.50
2018-12-29T20:12:16.499Z,98.50
2018-12-29T20:14:45.363Z,98.50
2018-12-29T20:17:14.576Z,98.70
2018-12-29T20:19:43.517Z,98.80
2018-12-29T20:22:12.384Z,98.80
2018-12-29T20:24:41.330Z,98.90
2018-12-29T20:27:10.434Z,98.80
2018-12-29T20:29:39.297Z,98.80
2018-12-29T20:32:08.229Z,98.70
2018-12-29T20:34:37.101Z,98.60
2018-12-29T20:37:06.037Z,98.60
2018-12-29T20:39:35.027Z,98.50
2018-12-29T20:42:04.115Z,98.40
2018-12-29T20:44:33.215Z,98.50
2018-12-29T20:47:02.590Z,98.40
2018-12-29T20:49:31.525Z,98.50
2018-12-29T20:52:00.465Z,98.60
2018-12-29T20:54:29.477Z,98.40
2018-12-29T20:56:58.337Z,98.40
2018-12-29T20:59:27.557Z,98.30
2018-12-29T21:01:56.817Z,98.30
2018-12-29T21:04:25.938Z,98.30
2018-12-29T21:06:55.140Z,98.40
2018-12-29T21:09:23.997Z,98.50
2018-12-29T21:11:53.127Z,98.60
2018-12-29T21:14:22.059Z,98.60
2018-12-29T21:16:51.031Z,98.60
2018-12-29T21:19:20.147Z,98.70
2018-12-29T21:21:49.192Z,98.70
2018-12-29T21:24:18.201Z,98.70
2018-12-29T21:26:47.698Z,98.50
2018-12-29T21:29:16.741Z,98.50
2018-12-29T21:31:45.682Z,98.40
2018-12-29T21:34:14.613Z,98.50
2018-12-29T21:36:43.672Z,98.30
2018-12-29T21:39:12.668Z,98.20
2018-12-29T21:41:41.826Z,98.40
2018-12-29T21:44:10.687Z,98.30
2018-12-29T21:46:39.570Z,98.30
2018-12-29T21:49:08.425Z,98.30
2018-12-29T21:51:38.206Z,98.50
2018-12-29T21:54:07.065Z,98.50
2018-12-29T21:56:36.088Z,98.40
2018-12-29T21:59:05.127Z,98.50
2018-12-29T22:01:34.062Z,98.40
2018-12-29T22:04:03.252Z,98.30
2018-12-29T22:06:32.478Z,98.30
2018-12-29T22:09:01.417Z,98.50
2018-12-29T22:11:31.921Z,98.40
2018-12-29T22:14:00.789Z,98.30
2018-12-29T22:16:29.713Z,98.30
2018-12-29T22:18:58.580Z,98.60
2018-12-29T22:21:27.501Z,98.70
2018-12-29T22:23:56.498Z,98.70
2018-12-29T22:26:25.445Z,98.70
2018-12-29T22:28:54.314Z,98.70
2018-12-29T22:31:23.319Z,98.70
2018-12-29T22:33:52.537Z,98.70
2018-12-29T22:36:21.405Z,98.70
2018-12-29T22:38:50.451Z,98.80
2018-12-29T22:41:19.334Z,98.70
2018-12-29T22:43:48.569Z,98.70
2018-12-29T22:46:17.677Z,98.60
2018-12-29T22:48:46.549Z,98.70
2018-12-29T22:51:15.406Z,98.70
2018-12-29T22:53:44.337Z,98.80
2018-12-29T22:56:13.695Z,98.80
2018-12-29T22:58:42.829Z,98.80
2018-12-29T23:01:11.766Z,98.60
2018-12-29T23:03:40.768Z,98.70
2018-12-29T23:06:09.929Z,98.60
2018-12-29T23:08:39.189Z,99.00
2018-12-29T23:11:08.517Z,99.00
2018-12-29T23:13:37.471Z,98.90
2018-12-29T23:16:06.472Z,99.10
2018-12-29T23:18:35.430Z,99.70
2018-12-29T23:21:04.407Z,99.80
2018-12-29T23:23:33.353Z,99.70
2018-12-29T23:26:02.890Z,99.90
2018-12-29T23:28:31.925Z,99.90
2018-12-29T23:31:00.969Z,99.90
2018-12-29T23:33:30.099Z,99.90
2018-12-29T23:35:59.161Z,99.90
2018-12-29T23:38:28.184Z,99.90
2018-12-29T23:40:57.121Z,99.90
2018-12-29T23:43:26.049Z,99.90
2018-12-29T23:45:55.001Z,99.90
2018-12-29T23:48:23.922Z,99.90
2018-12-29T23:51:05.351Z,99.90
2018-12-29T23:53:24.262Z,99.90
2018-12-29T23:55:53.772Z,99.90
2018-12-29T23:58:22.894Z,99.90
